createdAt,value
2022-12-11T00:01:29.495Z,1.38
2022-12-11T00:03:56.060Z,0.88
2022-12-11T00:06:23.651Z,1.15
2022-12-11T00:08:54.461Z,1.40
2022-12-11T00:11:22.482Z,0.75
2022-12-11T00:13:49.136Z,1.40
2022-12-11T00:16:15.884Z,1.85
2022-12-11T00:18:42.544Z,1.27
2022-12-11T00:21:14.781Z,0.75
2022-12-11T00:23:41.999Z,1.08
2022-12-11T00:26:11.774Z,0.50
2022-12-11T00:28:38.519Z,0.70
2022-12-11T00:31:07.574Z,0.80
2022-12-11T00:33:34.525Z,1.30
2022-12-11T00:36:01.200Z,0.80
2022-12-11T00:38:28.190Z,0.82
2022-12-11T00:40:59.180Z,0.60
2022-12-11T00:43:25.774Z,2.40
2022-12-11T00:45:52.447Z,1.67
2022-12-11T00:48:19.089Z,0.98
2022-12-11T00:50:46.401Z,0.60
2022-12-11T00:53:13.047Z,0.88
2022-12-11T00:55:41.230Z,0.80
2022-12-11T00:58:08.579Z,0.63
2022-12-11T01:00:35.680Z,0.43
2022-12-11T01:03:02.736Z,0.45
2022-12-11T01:05:29.375Z,1.10
2022-12-11T01:07:56.035Z,0.65
2022-12-11T01:10:25.965Z,0.98
2022-12-11T01:12:59.008Z,1.52
2022-12-11T01:15:29.093Z,0.90
2022-12-11T01:17:56.111Z,1.83
2022-12-11T01:20:24.409Z,1.88
2022-12-11T01:22:56.153Z,1.02
2022-12-11T01:25:23.185Z,0.90
2022-12-11T01:27:54.428Z,1.00
2022-12-11T01:30:23.350Z,1.65
2022-12-11T01:32:50.015Z,1.25
2022-12-11T01:35:17.660Z,2.15
2022-12-11T01:37:44.910Z,1.40
2022-12-11T01:40:18.236Z,1.00
2022-12-11T01:42:44.870Z,1.23
2022-12-11T01:45:39.468Z,1.13
2022-12-11T01:48:09.626Z,0.90
2022-12-11T01:50:41.154Z,1.20
2022-12-11T01:53:12.208Z,1.50
2022-12-11T01:55:39.967Z,2.38
2022-12-11T01:58:08.454Z,1.55
2022-12-11T02:00:35.463Z,1.00
2022-12-11T02:03:02.070Z,0.65
2022-12-11T02:05:28.731Z,1.10
2022-12-11T02:07:58.944Z,0.80
2022-12-11T02:10:39.020Z,0.50
2022-12-11T02:13:16.697Z,0.60
2022-12-11T02:15:53.696Z,2.08
2022-12-11T02:18:30.438Z,1.02
2022-12-11T02:21:02.680Z,0.57
2022-12-11T02:23:51.467Z,0.63
2022-12-11T02:26:21.218Z,0.77
2022-12-11T02:28:58.185Z,0.63
2022-12-11T02:31:32.835Z,0.40
2022-12-11T02:34:23.549Z,0.77
2022-12-11T02:36:57.136Z,0.40
2022-12-11T02:39:26.996Z,0.73
2022-12-11T02:41:55.899Z,0.70
2022-12-11T02:44:27.087Z,4.38
2022-12-11T02:46:54.797Z,0.40
2022-12-11T02:49:22.965Z,0.30
2022-12-11T02:51:52.523Z,2.38
2022-12-11T02:54:25.765Z,0.35
2022-12-11T02:57:01.696Z,1.77
2022-12-11T02:59:36.931Z,0.50
2022-12-11T03:02:04.737Z,0.22
2022-12-11T03:04:33.637Z,0.30
2022-12-11T03:07:12.207Z,0.45
2022-12-11T03:09:43.617Z,0.50
2022-12-11T03:12:12.702Z,0.65
2022-12-11T03:14:41.536Z,0.40
2022-12-11T03:17:17.009Z,0.65
2022-12-11T03:19:55.578Z,0.50
2022-12-11T03:22:35.746Z,0.30
2022-12-11T03:25:15.547Z,1.05
2022-12-11T03:27:56.512Z,0.40
2022-12-11T03:30:24.876Z,0.35
2022-12-11T03:33:05.476Z,0.80
2022-12-11T03:35:40.353Z,0.93
2022-12-11T03:38:13.821Z,1.70
2022-12-11T03:40:44.384Z,0.50
2022-12-11T03:43:11.462Z,0.30
2022-12-11T03:45:40.334Z,0.40
2022-12-11T03:48:09.861Z,0.60
2022-12-11T03:50:37.491Z,0.77
2022-12-11T03:53:05.353Z,0.57
2022-12-11T03:55:33.379Z,0.77
2022-12-11T03:58:00.200Z,0.63
2022-12-11T04:00:27.017Z,0.93
2022-12-11T04:03:13.928Z,0.85
2022-12-11T04:05:43.702Z,0.40
2022-12-11T04:08:11.066Z,1.27
2022-12-11T04:10:38.137Z,0.75
2022-12-11T04:13:04.825Z,0.80
2022-12-11T04:15:31.451Z,0.98
2022-12-11T04:18:16.665Z,0.70
2022-12-11T04:21:01.947Z,1.42
2022-12-11T04:23:47.319Z,0.68
2022-12-11T04:26:20.096Z,0.85
2022-12-11T04:28:49.779Z,0.63
2022-12-11T04:31:19.071Z,1.50
2022-12-11T04:33:46.408Z,1.40
2022-12-11T04:36:14.136Z,1.48
2022-12-11T04:38:41.079Z,1.00
2022-12-11T04:41:12.510Z,0.60
2022-12-11T04:43:40.173Z,1.30
2022-12-11T04:46:13.373Z,1.00
2022-12-11T04:48:40.517Z,1.00
2022-12-11T04:51:08.055Z,1.48
2022-12-11T04:53:35.681Z,1.05
2022-12-11T04:56:05.645Z,0.93
2022-12-11T04:58:32.222Z,1.15
2022-12-11T05:00:58.836Z,1.52
2022-12-11T05:03:25.415Z,2.35
2022-12-11T05:05:53.594Z,0.93
2022-12-11T05:08:21.604Z,1.42
2022-12-11T05:11:02.653Z,1.25
2022-12-11T05:13:30.191Z,1.38
2022-12-11T05:15:57.124Z,1.65
2022-12-11T05:18:24.421Z,1.05
2022-12-11T05:21:03.749Z,1.73
2022-12-11T05:23:31.365Z,1.48
2022-12-11T05:26:00.423Z,0.93
2022-12-11T05:28:28.769Z,1.50
2022-12-11T05:31:00.462Z,1.63
2022-12-11T05:33:27.657Z,2.15
2022-12-11T05:35:54.270Z,1.67
2022-12-11T05:38:22.592Z,3.47
2022-12-11T05:41:03.226Z,2.13
2022-12-11T05:43:33.391Z,2.42
2022-12-11T05:46:08.212Z,2.53
2022-12-11T05:48:35.166Z,1.83
2022-12-11T05:51:03.156Z,1.95
2022-12-11T05:53:30.811Z,1.60
2022-12-11T05:56:10.153Z,1.70
2022-12-11T05:58:37.151Z,1.85
2022-12-11T06:01:13.411Z,1.67
2022-12-11T06:03:40.243Z,1.42
2022-12-11T06:06:07.985Z,1.63
2022-12-11T06:08:35.168Z,1.20
2022-12-11T06:11:03.283Z,1.33
2022-12-11T06:13:30.352Z,1.27
2022-12-11T06:16:02.715Z,2.35
2022-12-11T06:18:29.782Z,1.27
2022-12-11T06:20:56.478Z,1.40
2022-12-11T06:23:23.346Z,1.58
2022-12-11T06:25:49.913Z,1.65
2022-12-11T06:28:16.582Z,1.48
2022-12-11T06:30:43.342Z,1.40
2022-12-11T06:33:09.935Z,1.38
2022-12-11T06:35:42.090Z,1.10
2022-12-11T06:38:10.796Z,1.73
2022-12-11T06:40:38.179Z,1.88
2022-12-11T06:43:04.813Z,1.67
2022-12-11T06:45:31.401Z,2.67
2022-12-11T06:47:58.627Z,1.52
2022-12-11T06:50:25.224Z,2.08
2022-12-11T06:52:52.019Z,1.80
2022-12-11T06:55:18.600Z,1.33
2022-12-11T06:57:45.283Z,5.82
2022-12-11T07:00:12.418Z,1.50
2022-12-11T07:02:39.073Z,1.67
2022-12-11T07:05:06.196Z,2.47
2022-12-11T07:07:33.311Z,1.92
2022-12-11T07:10:07.339Z,1.80
2022-12-11T07:12:34.773Z,1.55
2022-12-11T07:15:01.362Z,1.88
2022-12-11T07:17:29.183Z,1.80
2022-12-11T07:19:56.034Z,1.63
2022-12-11T07:22:22.889Z,3.05
2022-12-11T07:24:49.474Z,1.77
2022-12-11T07:27:16.109Z,3.30
2022-12-11T07:29:42.685Z,1.60
2022-12-11T07:32:09.366Z,2.25
2022-12-11T07:34:36.320Z,1.85
2022-12-11T07:37:03.029Z,2.75
2022-12-11T07:39:29.602Z,2.63
2022-12-11T07:41:56.172Z,2.00
2022-12-11T07:44:23.327Z,2.28
2022-12-11T07:46:50.018Z,2.50
2022-12-11T07:49:16.765Z,1.77
2022-12-11T07:51:43.593Z,2.67
2022-12-11T07:54:16.614Z,2.05
2022-12-11T07:59:14.618Z,2.10
2022-12-11T08:01:42.153Z,2.47
2022-12-11T08:04:11.434Z,2.13
2022-12-11T08:06:40.196Z,2.42
2022-12-11T08:09:09.519Z,1.80
2022-12-11T08:11:36.543Z,2.42
2022-12-11T08:14:03.245Z,1.90
2022-12-11T08:16:29.928Z,2.40
2022-12-11T08:18:56.552Z,2.05
2022-12-11T08:21:25.642Z,2.47
2022-12-11T08:23:53.378Z,1.95
2022-12-11T08:26:23.389Z,3.25
2022-12-11T08:28:51.197Z,2.50
2022-12-11T08:31:18.988Z,2.25
2022-12-11T08:33:47.037Z,2.28
2022-12-11T08:36:16.864Z,3.42
2022-12-11T08:38:43.586Z,3.10
2022-12-11T08:41:18.466Z,2.97
2022-12-11T08:43:45.304Z,2.28
2022-12-11T08:46:12.771Z,3.88
2022-12-11T08:48:41.597Z,1.75
2022-12-11T08:51:12.672Z,2.40
2022-12-11T08:53:39.633Z,2.13
2022-12-11T08:56:18.064Z,2.63
2022-12-11T08:58:46.601Z,3.05
2022-12-11T09:01:24.748Z,3.90
2022-12-11T09:03:52.921Z,2.80
2022-12-11T09:06:21.780Z,3.70
2022-12-11T09:08:52.963Z,3.22
2022-12-11T09:11:23.627Z,2.53
2022-12-11T09:13:50.887Z,2.35
2022-12-11T09:16:19.682Z,2.70
2022-12-11T09:18:47.905Z,2.55
2022-12-11T09:21:16.995Z,3.05
2022-12-11T09:23:44.522Z,3.30
2022-12-11T09:26:14.728Z,2.88
2022-12-11T09:28:46.161Z,2.92
2022-12-11T09:31:19.110Z,2.90
2022-12-11T09:33:46.416Z,2.13
2022-12-11T09:36:13.022Z,3.05
2022-12-11T09:38:39.984Z,2.00
2022-12-11T09:41:24.122Z,3.03
2022-12-11T09:44:06.706Z,2.33
2022-12-11T09:46:36.016Z,2.38
2022-12-11T09:49:04.853Z,2.33
2022-12-11T09:51:42.768Z,2.60
2022-12-11T09:54:13.574Z,2.25
2022-12-11T09:57:08.268Z,2.00
2022-12-11T09:59:46.755Z,2.63
2022-12-11T10:02:22.217Z,2.72
2022-12-11T10:05:28.920Z,2.95
2022-12-11T10:08:13.738Z,3.20
2022-12-11T10:10:51.645Z,2.95
2022-12-11T10:13:39.617Z,3.13
2022-12-11T10:16:24.232Z,2.13
2022-12-11T10:18:51.459Z,4.05
2022-12-11T10:21:19.768Z,3.38
2022-12-11T10:23:54.440Z,4.72
2022-12-11T10:26:23.038Z,3.58
2022-12-11T10:28:50.240Z,3.30
2022-12-11T10:31:18.770Z,2.78
2022-12-11T10:34:04.488Z,3.25
2022-12-11T10:36:35.380Z,2.78
2022-12-11T10:39:03.011Z,2.65
2022-12-11T10:41:39.728Z,2.42
2022-12-11T10:44:32.358Z,3.97
2022-12-11T10:47:06.410Z,5.45
2022-12-11T10:49:36.090Z,4.40
2022-12-11T10:52:10.980Z,2.25
2022-12-11T10:54:40.916Z,3.10
2022-12-11T10:57:10.132Z,2.65
2022-12-11T10:59:39.424Z,2.75
2022-12-11T11:02:18.689Z,2.83
2022-12-11T11:04:45.528Z,3.25
2022-12-11T11:07:24.101Z,2.47
2022-12-11T11:10:03.017Z,2.90
2022-12-11T11:12:29.577Z,3.08
2022-12-11T11:15:01.683Z,3.53
2022-12-11T11:17:33.807Z,2.60
2022-12-11T11:20:12.099Z,3.95
2022-12-11T11:22:44.777Z,3.80
2022-12-11T11:25:49.112Z,5.40
2022-12-11T11:28:21.528Z,4.13
2022-12-11T11:30:59.853Z,3.53
2022-12-11T11:33:27.661Z,2.63
2022-12-11T11:36:02.378Z,2.83
2022-12-11T11:38:34.799Z,3.63
2022-12-11T11:41:18.868Z,2.95
2022-12-11T11:43:50.699Z,2.42
2022-12-11T11:46:26.250Z,3.50
2022-12-11T11:49:23.695Z,3.05
2022-12-11T11:52:39.038Z,6.63
2022-12-11T11:55:17.292Z,3.50
2022-12-11T11:58:11.271Z,5.03
2022-12-11T12:00:38.132Z,6.47
2022-12-11T12:03:14.126Z,6.95
2022-12-11T12:06:17.198Z,4.35
2022-12-11T12:09:11.310Z,3.60
2022-12-11T12:11:49.677Z,5.20
2022-12-11T12:17:55.410Z,3.85
2022-12-11T12:20:47.247Z,6.28
2022-12-11T12:23:19.631Z,3.75
2022-12-11T12:25:46.150Z,3.97
2022-12-11T12:28:31.134Z,3.13
2022-12-11T12:31:06.727Z,3.22
2022-12-11T12:34:06.308Z,5.10
2022-12-11T12:36:38.578Z,3.63
2022-12-11T12:39:16.921Z,6.40
2022-12-11T12:41:56.479Z,6.45
2022-12-11T12:44:24.608Z,5.43
2022-12-11T12:46:59.409Z,8.68
2022-12-11T12:49:34.642Z,4.07
2022-12-11T12:52:03.153Z,5.85
2022-12-11T12:54:32.322Z,2.35
2022-12-11T12:57:02.747Z,2.97
2022-12-11T12:59:29.459Z,3.65
2022-12-11T13:02:03.145Z,3.20
2022-12-11T13:04:59.426Z,2.50
2022-12-11T13:07:30.329Z,2.92
2022-12-11T13:10:01.836Z,2.70
2022-12-11T13:12:34.810Z,2.65
2022-12-11T13:17:37.633Z,2.92
2022-12-11T13:20:32.202Z,3.60
2022-12-11T13:23:07.635Z,2.95
2022-12-11T13:25:51.417Z,2.05
2022-12-11T13:28:39.883Z,2.60
2022-12-11T13:31:15.714Z,2.95
2022-12-11T13:33:47.106Z,2.58
2022-12-11T13:36:18.945Z,3.42
2022-12-11T13:38:53.898Z,2.28
2022-12-11T13:41:20.842Z,3.72
2022-12-11T13:43:49.752Z,2.70
2022-12-11T13:46:24.043Z,4.72
2022-12-11T13:48:57.074Z,3.60
2022-12-11T13:54:16.699Z,2.50
2022-12-11T13:57:02.642Z,4.93
2022-12-11T13:59:35.833Z,3.13
2022-12-11T14:02:24.005Z,2.50
2022-12-11T14:04:55.802Z,3.75
2022-12-11T14:07:29.743Z,2.47
2022-12-11T14:10:08.064Z,4.00
2022-12-11T14:12:36.507Z,3.28
2022-12-11T14:15:04.816Z,4.60
2022-12-11T14:17:34.419Z,3.75
2022-12-11T14:20:07.239Z,2.50
2022-12-11T14:22:34.193Z,2.58
2022-12-11T14:25:05.585Z,2.35
2022-12-11T14:27:32.202Z,2.08
2022-12-11T14:30:10.870Z,2.05
2022-12-11T14:32:44.597Z,2.08
2022-12-11T14:37:45.413Z,2.83
2022-12-11T14:40:20.444Z,3.00
2022-12-11T14:42:57.032Z,2.70
2022-12-11T14:45:34.612Z,2.65
2022-12-11T14:48:09.608Z,2.65
2022-12-11T14:50:50.162Z,4.90
2022-12-11T14:53:25.761Z,4.03
2022-12-11T14:55:53.360Z,3.35
2022-12-11T14:58:23.133Z,4.15
2022-12-11T15:01:20.037Z,3.97
2022-12-11T15:03:47.163Z,3.60
2022-12-11T15:06:29.068Z,1.98
2022-12-11T15:08:55.993Z,2.80
2022-12-11T15:11:25.155Z,2.03
2022-12-11T15:14:00.588Z,2.00
2022-12-11T15:16:32.882Z,2.92
2022-12-11T15:19:00.428Z,2.05
2022-12-11T15:21:32.734Z,2.33
2022-12-11T15:24:02.570Z,3.40
2022-12-11T15:26:36.281Z,2.97
2022-12-11T15:29:06.805Z,2.95
2022-12-11T15:31:35.164Z,2.80
2022-12-11T15:34:02.410Z,3.15
2022-12-11T15:36:35.829Z,3.20
2022-12-11T15:39:05.751Z,3.10
2022-12-11T15:41:34.691Z,2.47
2022-12-11T15:44:04.032Z,1.85
2022-12-11T15:46:35.864Z,2.90
2022-12-11T15:49:05.834Z,3.72
2022-12-11T15:51:32.383Z,2.70
2022-12-11T15:53:58.948Z,3.83
2022-12-11T15:56:25.949Z,2.70
2022-12-11T15:58:52.565Z,2.88
2022-12-11T16:01:19.249Z,2.45
2022-12-11T16:03:46.004Z,2.78
2022-12-11T16:06:13.448Z,2.33
2022-12-11T16:08:40.044Z,3.65
2022-12-11T16:11:06.741Z,3.38
2022-12-11T16:13:33.294Z,3.15
2022-12-11T16:15:59.899Z,2.80
2022-12-11T16:18:26.854Z,2.88
2022-12-11T16:20:53.429Z,3.92
2022-12-11T16:23:20.163Z,10.48
2022-12-11T16:25:47.357Z,3.08
2022-12-11T16:28:17.053Z,3.03
2022-12-11T16:30:44.781Z,2.60
2022-12-11T16:33:13.367Z,3.67
2022-12-11T16:35:41.705Z,3.33
2022-12-11T16:38:09.901Z,3.97
2022-12-11T16:40:37.186Z,2.88
2022-12-11T16:43:04.974Z,5.10
2022-12-11T16:45:32.357Z,8.65
2022-12-11T16:47:58.989Z,11.63
2022-12-11T16:50:25.986Z,4.65
2022-12-11T16:52:52.596Z,3.67
2022-12-11T16:55:22.183Z,4.88
2022-12-11T16:57:48.863Z,5.13
2022-12-11T17:00:16.172Z,2.17
2022-12-11T17:02:42.875Z,2.78
2022-12-11T17:05:09.783Z,3.17
2022-12-11T17:07:37.166Z,4.22
2022-12-11T17:10:04.176Z,4.57
2022-12-11T17:12:31.057Z,4.47
2022-12-11T17:14:57.889Z,5.63
2022-12-11T17:17:25.023Z,4.93
2022-12-11T17:19:51.774Z,3.97
2022-12-11T17:22:18.421Z,2.45
2022-12-11T17:24:45.016Z,3.63
2022-12-11T17:27:11.605Z,3.63
2022-12-11T17:29:39.439Z,4.95
2022-12-11T17:32:06.538Z,4.35
2022-12-11T17:34:37.909Z,3.78
2022-12-11T17:37:05.235Z,5.50
2022-12-11T17:39:31.952Z,3.63
2022-12-11T17:41:58.589Z,6.20
2022-12-11T17:44:26.648Z,4.18
2022-12-11T17:46:53.698Z,6.60
2022-12-11T17:49:20.395Z,9.95
2022-12-11T17:51:48.033Z,9.32
2022-12-11T17:54:15.113Z,8.80
2022-12-11T17:56:41.842Z,8.60
2022-12-11T17:59:08.584Z,12.30
2022-12-11T18:01:35.545Z,7.95
2022-12-11T18:04:04.294Z,5.70
2022-12-11T18:06:31.546Z,6.18
2022-12-11T18:08:58.162Z,4.47
2022-12-11T18:11:25.293Z,3.50
2022-12-11T18:13:52.851Z,6.22
2022-12-11T18:16:29.728Z,4.18
2022-12-11T18:18:56.562Z,5.35
2022-12-11T18:21:26.962Z,5.50
2022-12-11T18:23:54.115Z,6.45
2022-12-11T18:26:20.843Z,6.43
2022-12-11T18:28:49.193Z,8.73
2022-12-11T18:31:16.744Z,36.67
2022-12-11T18:33:44.583Z,47.63
2022-12-11T18:36:13.764Z,14.23
2022-12-11T18:38:42.005Z,9.05
2022-12-11T18:41:10.975Z,35.60
2022-12-11T18:43:37.863Z,6.97
2022-12-11T18:46:06.508Z,6.80
2022-12-11T18:48:33.184Z,7.03
2022-12-11T18:50:59.860Z,4.90
2022-12-11T18:53:26.501Z,7.82
2022-12-11T18:55:58.597Z,6.60
2022-12-11T18:58:26.933Z,6.15
2022-12-11T19:00:53.602Z,6.88
2022-12-11T19:03:20.282Z,7.65
2022-12-11T19:05:47.017Z,7.43
2022-12-11T19:08:14.157Z,7.85
2022-12-11T19:10:42.977Z,7.25
2022-12-11T19:13:09.901Z,6.93
2022-12-11T19:15:43.897Z,6.43
2022-12-11T19:18:11.532Z,5.95
2022-12-11T19:20:49.338Z,8.23
2022-12-11T19:23:17.621Z,7.85
2022-12-11T19:25:45.886Z,6.18
2022-12-11T19:28:13.407Z,7.88
2022-12-11T19:30:48.936Z,6.70
2022-12-11T19:33:16.542Z,7.13
2022-12-11T19:35:44.045Z,6.95
2022-12-11T19:38:12.700Z,7.97
2022-12-11T19:40:41.493Z,6.95
2022-12-11T19:43:08.488Z,7.13
2022-12-11T19:45:35.297Z,7.82
2022-12-11T19:48:02.163Z,6.70
2022-12-11T19:50:28.788Z,8.15
2022-12-11T19:52:55.347Z,6.10
2022-12-11T19:55:21.924Z,8.63
2022-12-11T19:57:48.531Z,9.88
2022-12-11T20:00:15.508Z,8.60
2022-12-11T20:02:42.112Z,9.30
2022-12-11T20:05:09.310Z,10.57
2022-12-11T20:07:36.373Z,8.32
2022-12-11T20:10:03.092Z,9.90
2022-12-11T20:12:29.698Z,9.10
2022-12-11T20:14:56.278Z,8.50
2022-12-11T20:17:23.045Z,7.13
2022-12-11T20:19:49.670Z,8.32
2022-12-11T20:22:16.236Z,6.43
2022-12-11T20:24:42.818Z,7.97
2022-12-11T20:27:09.613Z,7.80
2022-12-11T20:29:37.384Z,7.00
2022-12-11T20:32:05.000Z,7.78
2022-12-11T20:34:31.676Z,7.88
2022-12-11T20:37:00.187Z,6.68
2022-12-11T20:39:27.087Z,6.80
2022-12-11T20:41:53.690Z,7.65
2022-12-11T20:44:20.463Z,8.43
2022-12-11T20:46:47.256Z,9.25
2022-12-11T20:49:13.856Z,8.98
2022-12-11T20:51:41.151Z,7.35
2022-12-11T20:54:08.246Z,7.75
2022-12-11T20:56:35.018Z,6.30
2022-12-11T20:59:01.783Z,8.38
2022-12-11T21:01:31.239Z,7.15
2022-12-11T21:03:59.424Z,7.85
2022-12-11T21:06:34.588Z,9.32
2022-12-11T21:09:06.370Z,14.50
2022-12-11T21:11:33.194Z,11.93
2022-12-11T21:13:59.963Z,11.35
2022-12-11T21:16:26.814Z,10.07
2022-12-11T21:18:55.133Z,11.02
2022-12-11T21:21:22.102Z,10.43
2022-12-11T21:23:48.838Z,11.80
2022-12-11T21:26:16.060Z,10.23
2022-12-11T21:28:43.431Z,10.27
2022-12-11T21:31:14.955Z,10.30
2022-12-11T21:33:41.721Z,10.13
2022-12-11T21:36:11.080Z,8.85
2022-12-11T21:38:38.130Z,8.15
2022-12-11T21:41:13.646Z,8.60
2022-12-11T21:44:14.273Z,9.25
2022-12-11T21:46:28.966Z,9.80
2022-12-11T21:48:55.852Z,8.68
2022-12-11T21:51:34.308Z,10.10
2022-12-11T21:54:03.573Z,9.70
2022-12-11T21:56:31.691Z,10.45
2022-12-11T21:58:58.441Z,9.52
2022-12-11T22:01:30.590Z,8.93
2022-12-11T22:03:59.323Z,8.80
2022-12-11T22:06:26.138Z,12.70
2022-12-11T22:08:53.175Z,12.30
2022-12-11T22:11:23.369Z,10.15
2022-12-11T22:13:50.101Z,11.23
2022-12-11T22:16:16.846Z,9.43
2022-12-11T22:18:43.637Z,12.10
2022-12-11T22:21:10.304Z,10.75
2022-12-11T22:23:41.146Z,13.02
2022-12-11T22:26:09.736Z,10.13
2022-12-11T22:28:36.332Z,13.38
2022-12-11T22:31:04.477Z,13.73
2022-12-11T22:33:31.118Z,11.20
2022-12-11T22:35:59.650Z,11.77
2022-12-11T22:38:26.745Z,11.57
2022-12-11T22:40:54.557Z,10.32
2022-12-11T22:43:21.733Z,10.18
2022-12-11T22:45:49.414Z,11.60
2022-12-11T22:48:16.108Z,12.85
2022-12-11T22:50:43.148Z,9.02
2022-12-11T22:53:10.134Z,9.88
2022-12-11T22:55:39.714Z,9.32
2022-12-11T22:58:06.581Z,9.48
2022-12-11T23:00:33.504Z,9.00
2022-12-11T23:03:00.215Z,11.18
2022-12-11T23:05:26.870Z,12.90
2022-12-11T23:07:53.518Z,9.20
2022-12-11T23:10:20.578Z,10.48
2022-12-11T23:12:47.169Z,11.48
2022-12-11T23:15:14.275Z,10.50
2022-12-11T23:17:41.248Z,9.95
2022-12-11T23:20:08.446Z,11.27
2022-12-11T23:22:35.104Z,9.60
2022-12-11T23:25:01.816Z,8.70
2022-12-11T23:27:29.088Z,10.05
2022-12-11T23:29:56.094Z,10.27
2022-12-11T23:32:22.933Z,8.75
2022-12-11T23:34:49.509Z,10.23
2022-12-11T23:37:16.090Z,10.82
2022-12-11T23:39:42.689Z,9.82
2022-12-11T23:42:09.438Z,9.45
2022-12-11T23:44:36.215Z,9.15
2022-12-11T23:47:02.988Z,10.65
2022-12-11T23:49:30.059Z,11.00
2022-12-11T23:51:56.631Z,10.82
2022-12-11T23:54:23.204Z,12.27
2022-12-11T23:56:49.781Z,9.27
2022-12-11T23:59:16.641Z,9.73
